createdAt,value
2019-04-06T00:00:50.935Z,44.60
2019-04-06T00:05:52.418Z,44.23
2019-04-06T00:10:55.162Z,40.93
2019-04-06T00:15:56.907Z,39.73
2019-04-06T00:20:58.384Z,34.83
2019-04-06T00:26:00.045Z,38.17
2019-04-06T00:31:03.980Z,42.00
2019-04-06T00:36:05.652Z,35.83
2019-04-06T00:41:07.492Z,39.77
2019-04-06T00:46:08.971Z,36.63
2019-04-06T00:51:10.736Z,34.53
2019-04-06T00:56:12.201Z,35.77
2019-04-06T01:01:13.927Z,38.67
2019-04-06T01:06:15.482Z,38.27
2019-04-06T01:11:16.956Z,29.97
2019-04-06T01:16:18.433Z,36.87
2019-04-06T01:21:20.129Z,34.23
2019-04-06T01:26:21.601Z,32.67
2019-04-06T01:31:23.075Z,36.37
2019-04-06T01:36:24.680Z,29.93
2019-04-06T01:41:26.250Z,35.27
2019-04-06T01:46:28.065Z,35.93
2019-04-06T01:51:29.729Z,36.13
2019-04-06T01:56:51.064Z,33.10
2019-04-06T02:01:54.862Z,32.60
2019-04-06T02:06:56.339Z,36.10
2019-04-06T02:11:57.835Z,36.83
2019-04-06T02:16:59.301Z,33.90
2019-04-06T02:22:00.892Z,36.13
2019-04-06T02:27:02.449Z,34.83
2019-04-06T02:32:11.699Z,33.17
2019-04-06T02:37:15.083Z,34.77
2019-04-06T02:42:27.461Z,39.60
2019-04-06T02:47:29.175Z,34.00
2019-04-06T02:52:30.651Z,33.03
2019-04-06T02:57:32.207Z,38.20
2019-04-06T03:02:34.195Z,33.70
2019-04-06T03:07:35.684Z,36.20
2019-04-06T03:12:37.546Z,39.70
2019-04-06T03:17:39.033Z,39.70
2019-04-06T03:22:40.509Z,37.40
2019-04-06T03:27:41.986Z,35.33
2019-04-06T03:32:43.917Z,43.10
2019-04-06T03:37:45.424Z,33.90
2019-04-06T03:42:47.259Z,38.27
2019-04-06T03:47:48.738Z,38.77
2019-04-06T03:52:50.370Z,37.97
2019-04-06T03:57:51.955Z,39.30
2019-04-06T04:02:53.716Z,40.07
2019-04-06T04:07:55.259Z,35.60
2019-04-06T04:12:56.943Z,43.67
2019-04-06T04:17:59.218Z,38.10
2019-04-06T04:23:00.808Z,38.70
2019-04-06T04:28:02.281Z,43.03
2019-04-06T04:33:03.860Z,45.57
2019-04-06T04:38:05.760Z,42.20
2019-04-06T04:43:07.295Z,49.33
2019-04-06T04:48:08.985Z,46.30
2019-04-06T04:53:10.883Z,43.83
2019-04-06T04:58:12.532Z,47.27
2019-04-06T05:03:14.232Z,46.00
2019-04-06T05:08:15.780Z,45.07
2019-04-06T05:13:17.256Z,55.60
2019-04-06T05:18:19.146Z,46.87
2019-04-06T05:23:20.622Z,46.47
2019-04-06T05:28:22.103Z,50.13
2019-04-06T05:33:23.698Z,50.03
2019-04-06T05:38:25.540Z,49.17
2019-04-06T05:43:27.059Z,52.17
2019-04-06T05:48:28.547Z,46.87
2019-04-06T05:53:30.008Z,52.97
2019-04-06T05:58:31.805Z,53.27
2019-04-06T06:03:33.462Z,56.70
2019-04-06T06:08:35.377Z,53.07
2019-04-06T06:13:39.158Z,57.23
2019-04-06T06:18:40.754Z,52.90
2019-04-06T06:23:42.259Z,55.93
2019-04-06T06:28:44.224Z,52.57
2019-04-06T06:33:45.850Z,48.60
2019-04-06T06:38:47.416Z,52.33
2019-04-06T06:43:48.939Z,61.77
2019-04-06T06:48:50.883Z,56.53
2019-04-06T06:53:52.378Z,53.93
2019-04-06T06:58:54.271Z,55.97
2019-04-06T07:03:55.830Z,55.07
2019-04-06T07:08:57.413Z,56.70
2019-04-06T07:13:59.463Z,46.77
2019-04-06T07:19:01.371Z,48.73
2019-04-06T07:24:03.574Z,56.37
2019-04-06T07:29:05.802Z,55.67
2019-04-06T07:34:07.696Z,51.37
2019-04-06T07:39:09.401Z,51.70
2019-04-06T07:44:11.035Z,49.13
2019-04-06T07:49:12.497Z,52.40
2019-04-06T07:54:14.038Z,50.27
2019-04-06T07:59:15.494Z,53.10
2019-04-06T08:04:17.109Z,52.53
2019-04-06T08:09:18.739Z,47.73
2019-04-06T08:14:20.314Z,49.67
2019-04-06T08:19:22.031Z,49.43
2019-04-06T08:24:23.955Z,46.77
2019-04-06T08:29:25.718Z,50.87
2019-04-06T08:34:27.383Z,47.83
2019-04-06T08:39:29.060Z,46.50
2019-04-06T08:44:30.903Z,50.73
2019-04-06T08:49:32.780Z,46.70
2019-04-06T08:54:34.266Z,44.70
2019-04-06T08:59:36.043Z,45.03
2019-04-06T09:04:37.812Z,42.07
2019-04-06T09:09:39.296Z,43.93
2019-04-06T09:14:41.238Z,39.83
2019-04-06T09:19:43.226Z,41.10
2019-04-06T09:24:45.452Z,39.13
2019-04-06T09:29:47.123Z,43.10
2019-04-06T09:34:49.081Z,45.20
2019-04-06T09:39:50.653Z,44.77
2019-04-06T09:44:54.175Z,44.00
2019-04-06T09:50:14.664Z,44.80
2019-04-06T09:55:18.500Z,34.77
2019-04-06T10:00:40.294Z,40.40
2019-04-06T10:05:49.673Z,40.27
2019-04-06T10:10:57.641Z,40.83
2019-04-06T10:15:59.559Z,42.93
2019-04-06T10:21:19.959Z,38.80
2019-04-06T10:26:29.008Z,39.13
2019-04-06T10:31:50.866Z,39.97
2019-04-06T10:36:58.829Z,38.27
2019-04-06T10:42:13.462Z,40.37
2019-04-06T10:47:17.402Z,45.23
2019-04-06T10:52:20.091Z,40.13
2019-04-06T10:57:41.373Z,35.63
2019-04-06T11:02:46.517Z,39.83
2019-04-06T11:07:48.294Z,37.03
2019-04-06T11:13:08.879Z,37.87
2019-04-06T11:18:29.026Z,42.50
2019-04-06T11:23:32.536Z,34.07
2019-04-06T11:28:38.775Z,34.97
2019-04-06T11:33:40.295Z,36.87
2019-04-06T11:39:00.451Z,36.07
2019-04-06T11:44:02.604Z,36.43
2019-04-06T11:49:06.560Z,42.67
2019-04-06T11:54:08.442Z,39.20
2019-04-06T11:59:29.103Z,33.87
2019-04-06T12:04:35.592Z,37.73
2019-04-06T12:09:56.029Z,32.40
2019-04-06T12:15:05.142Z,30.53
2019-04-06T12:20:26.187Z,31.53
2019-04-06T12:25:47.044Z,31.97
2019-04-06T12:31:00.634Z,27.07
2019-04-06T12:36:07.395Z,30.27
2019-04-06T12:41:09.079Z,30.60
2019-04-06T12:46:29.223Z,24.67
2019-04-06T12:51:41.828Z,24.03
2019-04-06T12:56:48.305Z,27.70
2019-04-06T13:01:52.135Z,22.57
2019-04-06T13:06:54.001Z,26.77
2019-04-06T13:12:14.561Z,25.30
2019-04-06T13:17:18.018Z,25.13
2019-04-06T13:22:28.528Z,25.20
2019-04-06T13:27:35.424Z,21.63
2019-04-06T13:32:45.027Z,20.87
2019-04-06T13:38:04.883Z,20.87
2019-04-06T13:43:14.271Z,21.40
2019-04-06T13:48:33.180Z,20.07
2019-04-06T13:53:53.754Z,20.27
2019-04-06T13:59:07.916Z,20.13
2019-04-06T14:04:12.376Z,22.40
2019-04-06T14:09:15.860Z,25.87
2019-04-06T14:14:22.130Z,23.70
2019-04-06T14:19:28.637Z,24.20
2019-04-06T14:24:49.407Z,25.67
2019-04-06T14:29:56.888Z,21.87
2019-04-06T14:35:18.392Z,22.47
2019-04-06T14:40:38.966Z,27.40
2019-04-06T14:45:46.589Z,19.43
2019-04-06T14:51:03.944Z,18.50
2019-04-06T14:56:11.581Z,17.77
2019-04-06T15:01:18.408Z,20.03
2019-04-06T15:06:38.560Z,19.17
2019-04-06T15:11:57.023Z,19.20
2019-04-06T15:17:03.087Z,20.90
2019-04-06T15:22:15.841Z,24.93
2019-04-06T15:27:17.933Z,22.37
2019-04-06T15:32:24.567Z,21.77
2019-04-06T15:37:44.548Z,25.87
2019-04-06T15:42:49.122Z,23.20
2019-04-06T15:47:52.532Z,24.17
2019-04-06T15:52:55.973Z,22.10
2019-04-06T15:58:17.369Z,20.87
2019-04-06T16:03:37.833Z,24.67
2019-04-06T16:08:50.547Z,23.63
2019-04-06T16:14:03.727Z,21.50
2019-04-06T16:19:16.154Z,19.93
2019-04-06T16:24:20.294Z,22.03
2019-04-06T16:29:35.943Z,20.07
2019-04-06T16:34:43.982Z,20.73
2019-04-06T16:39:53.299Z,21.70
2019-04-06T16:45:01.578Z,19.83
2019-04-06T16:50:21.220Z,26.77
2019-04-06T16:55:31.695Z,22.90
2019-04-06T17:00:42.561Z,27.93
2019-04-06T17:06:03.306Z,23.20
2019-04-06T17:11:22.341Z,23.93
2019-04-06T17:16:32.159Z,22.43
2019-04-06T17:21:53.968Z,22.97
2019-04-06T17:27:11.074Z,20.80
2019-04-06T17:32:18.293Z,20.53
2019-04-06T17:37:38.326Z,21.17
2019-04-06T17:42:47.546Z,20.53
2019-04-06T17:47:57.002Z,22.40
2019-04-06T17:53:07.261Z,21.00
2019-04-06T17:58:27.424Z,19.93
2019-04-06T18:03:33.628Z,18.37
2019-04-06T18:08:35.980Z,21.33
2019-04-06T18:13:42.507Z,22.33
2019-04-06T18:18:44.151Z,23.23
2019-04-06T18:23:46.130Z,21.80
2019-04-06T18:28:47.682Z,16.73
2019-04-06T18:33:49.184Z,27.93
2019-04-06T18:39:06.040Z,22.53
2019-04-06T18:44:07.925Z,22.80
2019-04-06T18:49:09.504Z,23.20
2019-04-06T18:54:11.823Z,20.40
2019-04-06T18:59:13.415Z,22.13
2019-04-06T19:04:15.707Z,26.77
2019-04-06T19:09:23.608Z,20.40
2019-04-06T19:14:20.801Z,21.57
2019-04-06T19:19:23.225Z,22.40
2019-04-06T19:24:24.900Z,20.93
2019-04-06T19:29:26.590Z,25.97
2019-04-06T19:34:28.257Z,23.50
2019-04-06T19:39:29.815Z,24.50
2019-04-06T19:44:31.639Z,19.70
2019-04-06T19:49:33.228Z,26.87
2019-04-06T19:54:35.927Z,20.57
2019-04-06T19:59:37.564Z,24.17
2019-04-06T20:04:39.104Z,26.07
2019-04-06T20:09:40.985Z,23.43
2019-04-06T20:14:42.923Z,24.73
2019-04-06T20:19:45.436Z,23.80
2019-04-06T20:24:47.787Z,22.07
2019-04-06T20:29:49.731Z,24.07
2019-04-06T20:34:52.113Z,23.97
2019-04-06T20:39:54.247Z,22.13
2019-04-06T20:44:56.444Z,22.37
2019-04-06T20:49:58.130Z,28.00
2019-04-06T20:54:59.679Z,23.20
2019-04-06T21:00:02.050Z,30.03
2019-04-06T21:05:08.178Z,29.80
2019-04-06T21:10:09.943Z,23.27
2019-04-06T21:15:18.988Z,25.10
2019-04-06T21:20:15.742Z,25.07
2019-04-06T21:25:17.389Z,25.60
2019-04-06T21:30:18.983Z,26.33
2019-04-06T21:35:20.476Z,31.33
2019-04-06T21:40:22.465Z,28.70
2019-04-06T21:45:24.220Z,30.87
2019-04-06T21:50:25.713Z,30.53
2019-04-06T21:55:27.506Z,29.60
2019-04-06T22:00:38.414Z,24.57
2019-04-06T22:05:40.222Z,28.77
2019-04-06T22:10:42.361Z,25.10
2019-04-06T22:15:44.236Z,25.40
2019-04-06T22:20:45.704Z,27.07
2019-04-06T22:25:47.183Z,29.23
2019-04-06T22:30:49.628Z,24.83
2019-04-06T22:35:51.813Z,27.40
2019-04-06T22:40:53.388Z,27.43
2019-04-06T22:45:54.862Z,26.33
2019-04-06T22:50:56.311Z,28.87
2019-04-06T22:55:58.591Z,23.83
2019-04-06T23:01:02.771Z,28.70
2019-04-06T23:06:06.224Z,26.13
2019-04-06T23:11:08.091Z,27.47
2019-04-06T23:16:10.321Z,29.40
2019-04-06T23:21:12.431Z,27.73
2019-04-06T23:26:14.610Z,28.77
2019-04-06T23:31:16.485Z,25.47
2019-04-06T23:36:18.369Z,27.80
2019-04-06T23:41:20.132Z,31.73
2019-04-06T23:46:22.310Z,29.53
2019-04-06T23:51:23.986Z,30.10
2019-04-06T23:56:25.507Z,30.33
